Time;durP1;ratioP1;P1;durP2;ratioP2;P2;SDS_P1;SDS_P2;PMS_P1;PMS_P2;Temp;Humidity;BMP_temperature;BMP_pressure;BME280_temperature;BME280_humidity;BME280_pressure;Samples;Min_cycle;Max_cycle;Signal;HPM_P1;HPM_P2
2022/12/31 00:02:04;;;;;;;;;;;;;;;;;;6126944;23;20332;-77
2022/12/31 00:04:30;;;;;;;;;;;;;;;;;;6126795;23;19904;-77
2022/12/31 00:06:56;;;;;;;;;;;;;;;;;;6126775;23;19953;-78
2022/12/31 00:09:22;;;;;;;;;;;;;;;;;;6126793;23;19905;-76
2022/12/31 00:11:47;;;;;;;;;;;;;;;;;;6126842;23;19909;-77
2022/12/31 00:14:13;;;;;;;;;;;;;;;;;;6126756;23;19912;-76
2022/12/31 00:16:39;;;;;;;;;;;;;;;;;;6126964;23;19904;-78
2022/12/31 00:19:05;;;;;;;;;;;;;;;;;;6126743;23;20435;-80
2022/12/31 00:21:31;;;;;;;;;;;;;;;;;;6126864;23;19955;-77
2022/12/31 00:23:57;;;;;;;;;;;;;;;;;;6126957;23;19905;-79
2022/12/31 00:26:26;;;;;;;;;;;;;;;;;;6126857;23;19905;-77
2022/12/31 00:28:52;;;;;;;;;;;;;;;;;;6127253;23;19905;-79
2022/12/31 00:31:18;;;;;;;;;;;;;;;;;;6128994;23;19911;-79
2022/12/31 00:33:44;;;;;;;;;;;;;;;;;;6102587;23;19959;-80
2022/12/31 00:36:10;;;;;;;;;;;;;;;;;;6128644;23;19912;-80
2022/12/31 00:38:36;;;;;;;;;;;;;;;;;;6128553;23;19912;-78
2022/12/31 00:41:01;;;;;;;;;;;;;;;;;;6128395;23;20287;-80
2022/12/31 00:43:27;;;;;;;;;;;;;;;;;;6102590;23;19905;-79
2022/12/31 00:45:53;;;;;;;;;;;;;;;;;;6128452;23;19932;-78
2022/12/31 00:48:19;;;;;;;;;;;;;;;;;;6128478;23;19912;-80
2022/12/31 00:50:45;;;;;;;;;;;;;;;;;;6128865;23;19984;-79
2022/12/31 00:53:11;;;;;;;;;;;;;;;;;;6128268;23;19905;-80
2022/12/31 00:55:37;;;;;;;;;;;;;;;;;;6128831;23;19912;-79
2022/12/31 00:58:03;;;;;;;;;;;;;;;;;;6128857;23;19924;-78
2022/12/31 01:00:29;;;;;;;;;;;;;;;;;;6128846;23;20327;-79
2022/12/31 01:02:55;;;;;;;;;;;;;;;;;;6129665;23;20340;-78
2022/12/31 01:05:21;;;;;;;;;;;;;;;;;;6128918;23;19912;-78
2022/12/31 01:07:47;;;;;;;;;;;;;;;;;;6129602;23;19912;-79
2022/12/31 01:11:17;;;;;;;;;;;;;;;;;;6129758;23;19905;-78
2022/12/31 01:12:58;;;;;;;;;;;;;;;;;;6128387;23;19905;-77
2022/12/31 01:15:24;;;;;;;;;;;;;;;;;;6128682;23;19905;-79
2022/12/31 01:17:50;;;;;;;;;;;;;;;;;;6128586;23;19905;-77
2022/12/31 01:20:17;;;;;;;;;;;;;;;;;;6128163;23;19916;-77
2022/12/31 01:22:42;;;;;;;;;;;;;;;;;;6128158;23;20391;-77
2022/12/31 01:25:08;;;;;;;;;;;;;;;;;;6128624;23;19941;-77
2022/12/31 01:27:35;;;;;;;;;;;;;;;;;;6128474;23;19912;-76
2022/12/31 01:30:01;;;;;;;;;;;;;;;;;;6128372;23;19914;-78
2022/12/31 01:32:26;;;;;;;;;;;;;;;;;;6128015;23;19905;-76
2022/12/31 01:34:52;;;;;;;;;;;;;;;;;;6128077;23;20004;-76
2022/12/31 01:37:18;;;;;;;;;;;;;;;;;;6128021;23;20329;-77
2022/12/31 01:39:44;;;;;;;;;;;;;;;;;;6127898;23;19909;-77
2022/12/31 01:42:10;;;;;;;;;;;;;;;;;;6127761;23;19912;-78
2022/12/31 01:44:36;;;;;;;;;;;;;;;;;;6127988;23;19905;-76
2022/12/31 01:47:02;;;;;;;;;;;;;;;;;;6128002;23;19927;-79
2022/12/31 01:49:28;;;;;;;;;;;;;;;;;;6101926;23;20284;-76
2022/12/31 01:51:54;;;;;;;;;;;;;;;;;;6101884;23;20324;-76
2022/12/31 01:54:20;;;;;;;;;;;;;;;;;;6128078;23;19913;-76
2022/12/31 01:56:46;;;;;;;;;;;;;;;;;;6127874;23;19905;-75
2022/12/31 01:59:12;;;;;;;;;;;;;;;;;;6127828;23;19988;-75
2022/12/31 02:01:37;;;;;;;;;;;;;;;;;;6127991;23;19915;-75
2022/12/31 02:04:03;;;;;;;;;;;;;;;;;;6127957;23;19909;-75
2022/12/31 02:06:29;;;;;;;;;;;;;;;;;;6101799;23;19905;-76
2022/12/31 02:08:55;;;;;;;;;;;;;;;;;;6127817;23;19909;-76
2022/12/31 02:11:21;;;;;;;;;;;;;;;;;;6101717;23;19904;-76
2022/12/31 02:13:47;;;;;;;;;;;;;;;;;;6101623;23;19956;-78
2022/12/31 02:16:13;;;;;;;;;;;;;;;;;;6127757;23;19905;-76
2022/12/31 02:18:39;;;;;;;;;;;;;;;;;;6127635;23;19905;-76
2022/12/31 02:21:05;;;;;;;;;;;;;;;;;;6128063;23;20394;-77
2022/12/31 02:23:31;;;;;;;;;;;;;;;;;;6101561;23;19909;-76
2022/12/31 02:26:15;;;;;;;;;;;15.30;99.90;;;;;;6127879;23;19905;-80
2022/12/31 02:28:49;;;;;;;;;;;15.20;99.90;;;;;;6127549;23;19921;-79
2022/12/31 02:31:15;;;;;;;;;;;;;;;;;;6127754;23;19960;-78
2022/12/31 02:33:41;;;;;;;;;;;;;;;;;;6101506;23;19908;-79
2022/12/31 02:36:07;;;;;;;;;;;;;;;;;;6127578;23;19956;-79
2022/12/31 02:38:34;;;;;;;;;;;;;;;;;;6127406;23;19905;-78
2022/12/31 02:41:00;;;;;;;;;;;;;;;;;;6127323;23;19963;-78
2022/12/31 02:43:26;;;;;;;;;;;;;;;;;;6127364;23;19913;-78
2022/12/31 02:45:52;;;;;;;;;;;;;;;;;;6127796;23;19912;-79
2022/12/31 02:48:23;;;;;;;;;;;15.50;99.90;;;;;;6127354;23;19904;-79
2022/12/31 02:51:07;;;;;;;;;;;15.60;99.90;;;;;;6127366;23;20003;-77
2022/12/31 02:53:44;;;;;;;;;;;15.60;99.90;;;;;;6101156;23;19909;-77
2022/12/31 02:56:10;;;;;;;;;;;;;;;;;;6127487;23;19935;-76
2022/12/31 03:06:54;;;;;;;;;;;;;;;;;;6127028;23;19911;-78
2022/12/31 03:09:20;;;;;;;;;;;;;;;;;;6127207;23;19932;-80
2022/12/31 03:14:30;;;;;;;;;;;15.70;1.00;;;;;;6126822;23;19912;-75
2022/12/31 03:16:55;;;;;;;;;;;15.70;1.00;;;;;;6127351;23;19905;-77
2022/12/31 03:27:33;;;;;;;;;;;15.50;1.00;;;;;;6126846;23;19912;-75
2022/12/31 03:29:59;;;;;;;;;;;;;;;;;;6127441;23;20320;-76
2022/12/31 03:32:25;;;;;;;;;;;15.60;1.00;;;;;;6127186;23;19909;-77
2022/12/31 03:34:50;;;;;;;;;;;15.50;1.00;;;;;;6127278;23;19904;-77
2022/12/31 03:37:16;;;;;;;;;;;;;;;;;;6126966;23;19937;-76
2022/12/31 03:39:42;;;;;;;;;;;15.60;1.00;;;;;;6126862;23;19913;-78
2022/12/31 03:42:08;;;;;;;;;;;;;;;;;;6126885;23;20213;-77
2022/12/31 03:44:34;;;;;;;;;;;;;;;;;;6126971;23;19911;-77
2022/12/31 03:47:00;;;;;;;;;;;;;;;;;;6100948;23;19912;-77
2022/12/31 03:49:26;;;;;;;;;;;;;;;;;;6126889;23;19905;-77
2022/12/31 03:51:52;;;;;;;;;;;;;;;;;;6126767;23;19905;-77
2022/12/31 03:54:18;;;;;;;;;;;;;;;;;;6100841;23;19913;-77
2022/12/31 03:56:44;;;;;;;;;;;;;;;;;;6126640;23;19905;-77
2022/12/31 03:59:09;;;;;;;;;;;;;;;;;;6126946;23;20239;-76
2022/12/31 04:01:35;;;;;;;;;;;;;;;;;;6126802;23;20392;-77
2022/12/31 04:04:01;;;;;;;;;;;;;;;;;;6127067;23;19905;-76
2022/12/31 04:06:27;;;;;;;17.00;3.00;;;15.70;1.00;;;;;;6128536;23;19912;-77
2022/12/31 04:08:52;;;;;;;;;;;15.70;1.00;;;;;;6128857;23;20002;-77
2022/12/31 04:11:19;;;;;;;22.17;3.20;;;;;;;;;;6128891;23;20235;-77
2022/12/31 04:13:44;;;;;;;;;;;;;;;;;;6128764;23;20003;-77
2022/12/31 04:16:11;;;;;;;19.33;3.08;;;;;;;;;;6128781;23;19972;-77
2022/12/31 04:18:36;;;;;;;;;;;;;;;;;;6128665;23;20002;-78
2022/12/31 04:21:03;;;;;;;16.50;2.97;;;;;;;;;;6128156;23;19940;-77
2022/12/31 04:23:29;;;;;;;13.93;3.15;;;;;;;;;;6128171;23;20045;-78
2022/12/31 04:25:56;;;;;;;18.38;3.10;;;;;;;;;;6128148;23;20002;-77
2022/12/31 04:28:22;;;;;;;18.40;3.38;;;;;;;;;;6128121;23;20001;-79
2022/12/31 04:30:48;;;;;;;21.13;3.42;;;;;;;;;;6128242;23;20005;-76
2022/12/31 04:33:14;;;;;;;20.17;3.67;;;;;;;;;;6128277;23;20412;-78
2022/12/31 04:35:40;;;;;;;21.05;3.83;;;;;;;;;;6128094;23;20006;-78
2022/12/31 04:38:06;;;;;;;18.65;3.97;;;;;;;;;;6128298;23;20010;-79
2022/12/31 04:40:31;;;;;;;18.70;3.53;;;15.30;99.90;;;;;;6127856;23;20064;-77
2022/12/31 04:42:57;;;;;;;;;;;15.20;99.90;;;;;;6128742;23;20025;-78
2022/12/31 04:45:23;;;;;;;25.10;3.95;;;;;;;;;;6127998;23;20272;-78
2022/12/31 04:47:49;;;;;;;;;;;15.30;1.00;;;;;;6129014;23;20017;-79
2022/12/31 04:50:14;;;;;;;23.67;3.72;;;15.30;1.00;;;;;;6128415;23;19979;-77
2022/12/31 04:52:40;;;;;;;;;;;15.30;1.00;;;;;;6128297;23;20002;-78
2022/12/31 04:55:06;;;;;;;19.48;4.07;;;15.60;1.00;;;;;;6101999;23;19908;-78
2022/12/31 04:57:32;;;;;;;;;;;;;;;;;;6128150;23;20488;-77
2022/12/31 04:59:58;;;;;;;20.50;3.78;;;;;;;;;;6128338;23;19905;-77
2022/12/31 05:02:24;;;;;;;;;;;15.70;99.90;;;;;;6128312;23;20418;-78
2022/12/31 05:04:49;;;;;;;20.10;3.60;;;15.70;99.90;;;;;;6127887;23;19901;-77
2022/12/31 05:07:15;;;;;;;;;;;15.60;99.90;;;;;;6128315;23;20106;-77
2022/12/31 05:09:41;;;;;;;21.65;4.03;;;;;;;;;;6127826;23;19907;-77
2022/12/31 05:12:06;;;;;;;;;;;15.80;99.90;;;;;;6128472;23;20010;-78
2022/12/31 05:14:32;;;;;;;20.30;3.95;;;15.70;99.90;;;;;;6127786;23;20244;-78
2022/12/31 05:16:59;;;;;;;;;;;;;;;;;;6127579;23;20002;-77
2022/12/31 05:19:25;;;;;;;20.80;3.85;;;;;;;;;;6127898;23;19909;-78
2022/12/31 05:24:36;;;;;;;23.60;4.13;;;;;;;;;;6127826;23;20516;-77
2022/12/31 05:27:02;;;;;;;;;;;;;;;;;;6128334;23;20002;-78
2022/12/31 05:29:28;;;;;;;20.60;4.05;;;;;;;;;;6127791;23;19908;-78
2022/12/31 05:31:54;;;;;;;24.08;4.57;;;;;;;;;;6128045;23;20060;-78
2022/12/31 05:34:20;;;;;;;22.58;4.00;;;;;;;;;;6127770;23;20002;-76
2022/12/31 05:36:46;;;;;;;23.55;4.13;;;;;;;;;;6127484;23;20006;-77
2022/12/31 05:39:12;;;;;;;31.35;5.28;;;;;;;;;;6127657;23;20013;-77
2022/12/31 05:41:38;;;;;;;31.02;4.68;;;;;;;;;;6127630;23;20006;-79
2022/12/31 05:44:04;;;;;;;;;;;;;;;;;;6128479;23;20002;-77
2022/12/31 05:46:30;;;;;;;16.48;3.35;;;;;;;;;;6127742;23;19925;-77
2022/12/31 05:48:56;;;;;;;26.02;3.83;;;;;;;;;;6127721;23;20100;-76
2022/12/31 05:51:22;;;;;;;;;;;;;;;;;;6128049;23;20456;-78
2022/12/31 05:53:48;;;;;;;25.38;4.63;;;;;;;;;;6127400;23;19901;-77
2022/12/31 05:56:15;;;;;;;25.63;4.35;;;;;;;;;;6127293;23;20381;-76
2022/12/31 05:58:41;;;;;;;33.75;4.53;;;;;;;;;;6125419;23;20025;-77
2022/12/31 06:01:07;;;;;;;;;;;;;;;;;;6127711;23;20425;-78
2022/12/31 06:03:33;;;;;;;33.45;4.55;;;;;;;;;;6127270;23;19908;-75
2022/12/31 06:05:59;;;;;;;;;;;;;;;;;;6127640;23;20429;-78
2022/12/31 06:08:25;;;;;;;30.60;5.25;;;;;;;;;;6127240;23;19936;-77
2022/12/31 06:10:51;;;;;;;29.17;4.88;;;;;;;;;;6127235;23;20057;-77
2022/12/31 06:13:17;;;;;;;30.45;5.72;;;;;;;;;;6127135;23;20006;-78
2022/12/31 06:15:43;;;;;;;;;;;;;;;;;;6128136;23;20433;-77
2022/12/31 06:18:09;;;;;;;32.72;5.15;;;;;;;;;;6127150;23;19956;-76
2022/12/31 06:20:38;;;;;;;30.83;5.47;;;;;;;;;;6126923;23;20532;-77
2022/12/31 06:23:04;;;;;;;29.38;5.10;;;;;;;;;;6127036;23;20076;-75
2022/12/31 06:25:30;;;;;;;29.67;5.55;;;;;;;;;;6127488;23;20005;-78
2022/12/31 06:27:57;;;;;;;30.00;6.15;;;;;;;;;;6127136;23;20504;-76
2022/12/31 06:30:23;;;;;;;33.75;5.80;;;;;;;;;;6127082;23;20072;-77
2022/12/31 06:32:48;;;;;;;;;;;;;;;;;;6127506;23;20053;-77
2022/12/31 06:35:15;;;;;;;31.73;5.82;;;;;;;;;;6127268;23;19901;-77
2022/12/31 06:37:41;;;;;;;32.17;6.03;;;;;;;;;;6127326;23;20069;-77
2022/12/31 06:40:07;;;;;;;34.83;4.95;;;;;;;;;;6125241;23;20010;-77
2022/12/31 06:42:33;;;;;;;30.58;5.63;;;;;;;;;;6126900;23;20002;-79
2022/12/31 06:44:59;;;;;;;;;;;;;;;;;;6127318;23;19998;-77
2022/12/31 06:47:25;;;;;;;30.80;5.15;;;;;;;;;;6127412;23;20315;-77
2022/12/31 06:49:52;;;;;;;36.25;6.38;;;;;;;;;;6126923;23;20009;-76
2022/12/31 06:52:18;;;;;;;31.98;5.07;;;;;;;;;;6127203;23;20081;-77
2022/12/31 06:54:44;;;;;;;28.60;5.07;;;;;;;;;;6127095;23;20006;-79
2022/12/31 06:57:10;;;;;;;28.85;5.20;;;;;;;;;;6126781;23;20467;-75
2022/12/31 06:59:37;;;;;;;32.85;5.45;;;;;;;;;;6126728;23;20006;-76
2022/12/31 07:02:07;;;;;;;34.28;5.75;;;;;;;;;;6126770;23;20070;-76
2022/12/31 07:04:49;;;;;;;29.65;5.60;;;;;;;;;;6126941;23;20073;-77
2022/12/31 07:07:27;;;;;;;31.90;5.20;;;;;;;;;;6127119;23;20069;-76
2022/12/31 07:09:53;;;;;;;27.42;4.55;;;;;;;;;;6126722;23;20036;-77
2022/12/31 07:12:19;;;;;;;27.63;5.22;;;;;;;;;;6126784;23;20013;-77
2022/12/31 07:14:48;;;;;;;;;;;13.70;99.90;;;;;;6127156;23;20148;-77
2022/12/31 07:17:14;;;;;;;28.50;5.00;;;;;;;;;;6126602;23;19901;-76
2022/12/31 07:19:40;;;;;;;;;;;;;;;;;;6126960;23;20034;-76
2022/12/31 07:22:09;;;;;;;27.73;5.20;;;;;;;;;;6126584;23;19928;-77
2022/12/31 07:24:35;;;;;;;36.92;5.43;;;;;;;;;;6126570;23;20089;-76
2022/12/31 07:27:20;;;;;;;32.08;5.90;;;;;;;;;;6126507;23;20009;-78
2022/12/31 07:30:05;;;;;;;35.37;5.40;;;;;;;;;;6127029;23;20449;-77
2022/12/31 07:32:40;;;;;;;26.85;5.00;;;;;;;;;;6126648;23;20037;-77
2022/12/31 07:35:09;;;;;;;30.75;4.82;;;;;;;;;;6126436;23;20037;-77
2022/12/31 07:37:54;;;;;;;32.22;5.57;;;;;;;;;;6126430;23;20472;-77
2022/12/31 07:40:32;;;;;;;29.50;5.22;;;;;;;;;;6126004;23;20441;-76
2022/12/31 07:43:08;;;;;;;29.65;5.20;;;;;;;;;;6126924;23;20429;-77
2022/12/31 07:45:48;;;;;;;28.92;5.00;;;;;;;;;;6126553;23;20056;-77
2022/12/31 07:48:27;;;;;;;37.72;6.15;;;;;;;;;;6126356;23;20009;-77
2022/12/31 07:50:54;;;;;;;37.75;6.32;;;;;;;;;;6126884;23;20002;-77
2022/12/31 07:53:21;;;;;;;30.48;5.32;;;;;;;;;;6126254;23;20013;-77
2022/12/31 07:55:51;;;;;;;32.40;5.25;;;;;;;;;;6126298;23;20001;-76
2022/12/31 07:58:21;;;;;;;36.78;6.35;;;;;;;;;;6126152;23;20400;-77
2022/12/31 08:00:48;;;;;;;34.30;6.65;;;;;;;;;;6126228;23;20044;-77
2022/12/31 08:03:24;;;;;;;33.70;5.47;;;;;;;;;;6126324;23;20002;-76
2022/12/31 08:06:11;;;;;;;26.55;4.95;;;;;;;;;;6125431;23;20332;-76
2022/12/31 08:08:53;;;;;;;27.92;4.82;;;;;;;;;;6126309;23;20002;-77
2022/12/31 08:11:37;;;;;;;25.52;4.53;;;;;;;;;;6126440;23;20073;-76
2022/12/31 08:14:03;;;;;;;31.92;4.68;;;;;;;;;;6126377;23;20009;-77
2022/12/31 08:16:29;;;;;;;33.15;5.22;;;;;;;;;;6126267;23;20072;-76
2022/12/31 08:18:56;;;;;;;35.65;5.47;;;;;;;;;;6126234;23;20030;-76
2022/12/31 08:21:27;;;;;;;29.70;5.05;;;;;;;;;;6126164;23;20110;-77
2022/12/31 08:24:00;;;;;;;33.17;5.07;;;;;;;;;;6126289;23;20426;-76
2022/12/31 08:26:45;;;;;;;27.75;5.13;;;;;;;;;;6126337;23;20073;-77
2022/12/31 08:29:21;;;;;;;32.90;5.00;;;;;;;;;;6126237;23;20001;-77
2022/12/31 08:31:48;;;;;;;35.47;4.68;;;;;;;;;;6126552;23;20040;-77
2022/12/31 08:34:26;;;;;;;28.30;4.88;;;;;;;;;;6126120;23;20318;-76
2022/12/31 08:36:52;;;;;;;28.63;4.60;;;;;;;;;;6126168;23;20057;-77
2022/12/31 08:39:18;;;;;;;;;;;;;;;;;;6127371;23;20012;-76
2022/12/31 08:41:45;;;;;;;30.10;4.50;;;;;;;;;;6126094;23;19936;-76
2022/12/31 08:44:23;;;;;;;36.00;5.80;;;;;;;;;;6126149;23;20002;-76
2022/12/31 08:46:55;;;;;;;26.40;4.88;;;;;;;;;;6126079;23;20002;-77
2022/12/31 08:49:21;;;;;;;26.67;5.00;;;;;;;;;;6126837;23;20485;-76
2022/12/31 08:51:47;;;;;;;26.60;4.65;;;;;;;;;;6127636;23;20064;-76
2022/12/31 08:54:14;;;;;;;30.20;5.72;;;;;;;;;;6126279;23;20395;-76
2022/12/31 08:57:03;;;;;;;23.48;4.50;;;;;;;;;;6127862;23;20030;-76
2022/12/31 08:59:42;;;;;;;26.90;4.82;;;;;;;;;;6128191;23;20068;-76
2022/12/31 09:02:08;;;;;;;29.40;5.28;;;;;;;;;;6128070;23;20336;-77
2022/12/31 09:04:34;;;;;;;;;;;;;;;;;;6128286;23;20381;-77
2022/12/31 09:07:01;;;;;;;32.15;5.93;;;;;;;;;;6127774;23;19904;-77
2022/12/31 09:09:35;;;;;;;25.88;4.53;;;;;;;;;;6127761;23;20073;-77
2022/12/31 09:12:01;;;;;;;21.35;4.45;;;;;;;;;;6128012;23;20067;-77
2022/12/31 09:14:27;;;;;;;;;;;;;;;;;;6128243;23;20462;-77
2022/12/31 09:16:53;;;;;;;25.15;4.63;;;;;;;;;;6127918;23;19908;-76
2022/12/31 09:19:19;;;;;;;;;;;;;;;;;;6128156;23;19998;-77
2022/12/31 09:21:45;;;;;;;28.58;4.43;;;;;;;;;;6128123;23;19905;-76
2022/12/31 09:24:12;;;;;;;30.55;4.45;;;;;;;;;;6128059;23;20056;-77
2022/12/31 09:26:57;;;;;;;19.65;4.32;;;;;;;;;;6127937;23;19998;-77
2022/12/31 09:29:26;;;;;;;21.27;4.35;;;;;;;;;;6127728;23;19998;-76
2022/12/31 09:32:11;;;;;;;24.83;5.35;;;;;;;;;;6127853;23;20013;-76
2022/12/31 09:34:44;;;;;;;27.98;5.10;;;;;;;;;;6126018;23;20006;-78
2022/12/31 09:37:39;;;;;;;28.38;4.35;;;;;;;;;;6126155;23;20006;-76
2022/12/31 09:40:28;;;;;;;28.13;4.65;;;;;;;;;;6101921;23;20006;-77
2022/12/31 09:42:57;;;;;;;23.17;4.25;;;;;;;;;;6111796;23;20038;-77
2022/12/31 09:45:30;;;;;;;29.27;4.47;;;;;;;;;;6128294;23;20005;-78
2022/12/31 09:48:11;;;;;;;28.00;4.85;;;;;;;;;;6127571;23;20071;-79
2022/12/31 09:50:47;;;;;;;26.45;4.88;;;;;;;;;;6127464;23;20006;-77
2022/12/31 09:53:23;;;;;;;24.65;4.93;;;;;;;;;;6127281;23;20006;-78
2022/12/31 09:56:00;;;;;;;25.08;4.13;;;;;;;;;;6127527;23;20009;-78
2022/12/31 09:58:42;;;;;;;27.67;4.82;;;;;;;;;;6127125;23;20040;-77
2022/12/31 10:01:11;;;;;;;26.85;5.30;;;;;;;;;;6127191;23;20456;-77
2022/12/31 10:03:49;;;;;;;24.98;5.97;;;;;;;;;;6126965;23;19998;-77
2022/12/31 10:06:18;;;;;;;29.67;6.78;;;;;;;;;;6127283;23;20073;-77
2022/12/31 10:08:50;;;;;;;32.30;5.40;;;;;;;;;;6127175;23;20002;-78
2022/12/31 10:11:27;;;;;;;27.77;9.70;;;;;;;;;;6127139;23;20012;-78
2022/12/31 10:14:02;;;;;;;26.45;7.13;;;;;;;;;;6127387;23;20077;-77
2022/12/31 10:16:55;;;;;;;22.60;4.68;;;;;;;;;;6127113;23;20433;-78
2022/12/31 10:19:24;;;;;;;20.98;3.85;;;;;;;;;;6082065;23;20337;-78
2022/12/31 10:21:59;;;;;;;25.15;4.28;;;;;;;;;;6126941;23;20009;-78
2022/12/31 10:24:31;;;;;;;19.98;3.80;;;;;;;;;;6127007;23;20030;-78
2022/12/31 10:27:16;;;;;;;26.55;3.53;;;;;;;;;;6126956;23;20129;-77
2022/12/31 10:29:45;;;;;;;21.40;3.90;;;;;;;;;;6126954;23;20094;-77
2022/12/31 10:32:19;;;;;;;19.98;4.40;;;;;;;;;;6126931;23;20428;-77
2022/12/31 10:35:12;;;;;;;19.15;4.05;;;;;;;;;;6126979;23;20002;-77
2022/12/31 10:38:15;;;;;;;16.88;3.53;;;;;;;;;;6127295;23;19998;-77
2022/12/31 10:40:59;;;;;;;20.00;4.55;;;;;;;;;;6009419;23;20094;-78
2022/12/31 10:43:37;;;;;;;21.43;3.57;;;;;;;;;;6118987;23;20006;-78
2022/12/31 10:46:15;;;;;;;16.88;3.25;;;;;;;;;;6126854;23;20052;-76
2022/12/31 10:48:56;;;;;;;17.00;3.45;;;;;;;;;;6126828;23;19998;-77
2022/12/31 10:51:29;;;;;;;15.75;2.90;;;;;;;;;;6125099;23;20002;-77
2022/12/31 10:54:10;;;;;;;16.75;2.92;;;;;;;;;;6126759;23;20002;-79
2022/12/31 10:56:39;;;;;;;16.80;3.38;;;;;;;;;;6126732;23;20322;-78
2022/12/31 10:59:05;;;;;;;17.83;3.03;;;;;;;;;;6126079;23;20013;-78
2022/12/31 11:01:48;;;;;;;17.40;3.72;;;;;;;;;;6126983;23;20454;-78
2022/12/31 11:04:33;;;;;;;19.15;3.28;;;;;;;;;;6126786;23;20005;-77
2022/12/31 11:07:11;;;;;;;17.80;3.97;;;;;;;;;;6126701;23;20002;-77
2022/12/31 11:09:37;;;;;;;20.23;3.47;;;;;;;;;;6124795;23;20415;-77
2022/12/31 11:12:26;;;;;;;21.23;3.97;;;;;;;;;;6125077;23;20030;-77
2022/12/31 11:15:10;;;;;;;22.98;4.15;;;;;;;;;;6126700;23;20041;-78
2022/12/31 11:17:36;;;;;;;23.30;3.70;;;;;;;;;;6126610;23;20002;-77
2022/12/31 11:20:02;;;;;;;24.58;4.25;;;;;;;;;;6124953;23;20056;-77
2022/12/31 11:22:44;;;;;;;22.38;4.10;;;;;;;;;;6125000;23;20077;-76
2022/12/31 11:25:42;;;;;;;20.42;3.90;;;;;;;;;;6126549;23;20072;-77
2022/12/31 11:28:21;;;;;;;21.00;3.72;;;;;;;;;;6062185;23;20085;-77
2022/12/31 11:30:53;;;;;;;22.17;3.83;;;;;;;;;;6126512;23;20006;-77
2022/12/31 11:33:38;;;;;;;20.58;4.43;;;;;;;;;;6126517;23;20433;-77
2022/12/31 11:36:04;;;;;;;19.85;4.18;;;;;;;;;;6126497;23;20072;-78
2022/12/31 11:38:35;;;;;;;32.90;8.18;;;;;;;;;;6126373;23;20013;-78
2022/12/31 11:41:12;;;;;;;21.52;5.13;;;;;;;;;;6126276;23;20006;-77
2022/12/31 11:43:47;;;;;;;27.23;4.38;;;;;;;;;;6126770;23;20008;-77
2022/12/31 11:46:13;;;;;;;;;;;;;;;;;;6126938;23;20006;-77
2022/12/31 11:48:49;;;;;;;15.30;3.85;;;;;;;;;;6126715;23;19951;-78
2022/12/31 11:51:15;;;;;;;18.38;3.28;;;;;;;;;;6126437;23;20006;-77
2022/12/31 11:53:56;;;;;;;21.10;3.90;;;;;;;;;;6124714;23;20345;-77
2022/12/31 11:56:27;;;;;;;19.92;3.25;;;;;;;;;;6126822;23;20399;-78
2022/12/31 11:58:54;;;;;;;21.17;3.40;;;;;;;;;;6126234;23;20110;-76
2022/12/31 12:01:23;;;;;;;19.05;3.60;;;;;;;;;;6126326;23;20013;-77
2022/12/31 12:03:49;;;;;;;16.60;3.00;;;;;;;;;;6126283;23;20002;-76
2022/12/31 12:06:17;;;;;;;20.50;3.45;;;;;;;;;;6126232;23;20353;-77
2022/12/31 12:08:43;;;;;;;16.77;3.58;;;;;;;;;;6126522;23;19998;-77
2022/12/31 12:11:26;;;;;;;16.67;3.53;;;;;;;;;;6126284;23;20002;-76
2022/12/31 12:13:52;;;;;;;14.02;2.63;;;;;;;;;;6126319;23;20006;-76
2022/12/31 12:16:20;;;;;;;19.98;3.72;;;;;;;;;;6126269;23;20080;-77
2022/12/31 12:19:00;;;;;;;19.55;3.53;;;;;;;;;;6126213;23;20042;-76
2022/12/31 12:21:26;;;;;;;19.38;3.75;;;;;;;;;;6126452;23;20013;-77
2022/12/31 12:23:55;;;;;;;15.63;3.50;;;;;;;;;;6125998;23;20002;-77
2022/12/31 12:26:42;;;;;;;15.75;3.00;;;;;;;;;;6128078;23;20061;-76
2022/12/31 12:29:15;;;;;;;20.67;3.83;;;;;;;;;;6128470;23;20002;-76
2022/12/31 12:31:42;;;;;;;17.88;3.40;;;;;;;;;;6128376;23;20002;-76
2022/12/31 12:34:34;;;;;;;21.75;3.45;;;;;;;;;;6128172;23;20341;-75
2022/12/31 12:37:01;;;;;;;19.80;3.55;;;;;;;;;;6123042;23;20013;-75
2022/12/31 12:39:28;;;;;;;15.40;3.50;;;;;;;;;;6127851;23;20001;-76
2022/12/31 12:42:23;;;;;;;20.98;3.78;;;;;;;;;;6127772;23;20012;-77
2022/12/31 12:45:00;;;;;;;21.85;3.95;;;;;;;;;;6103521;23;20013;-76
2022/12/31 12:47:26;;;;;;;19.80;3.60;;;;;;;;;;6128168;23;20061;-77
2022/12/31 12:49:53;;;;;;;18.00;3.40;;;;;;;;;;6126414;23;20033;-76
2022/12/31 12:52:32;;;;;;;19.58;4.15;;;;;;;;;;6126280;23;20389;-75
2022/12/31 12:55:14;;;;;;;19.63;3.60;;;;;;;;;;6128278;23;20001;-75
2022/12/31 12:57:40;;;;;;;20.27;3.65;;;;;;;;;;6127641;23;20014;-76
2022/12/31 13:00:15;;;;;;;18.05;3.45;;;;;;;;;;6127735;23;20017;-76
2022/12/31 13:02:47;;;;;;;18.05;3.17;;;;;;;;;;6128308;23;20069;-76
2022/12/31 13:05:16;;;;;;;25.98;7.50;;;;;;;;;;6128170;23;20126;-76
2022/12/31 13:08:01;;;;;;;25.42;7.60;;;;;;;;;;6127790;23;19998;-77
2022/12/31 13:10:36;;;;;;;14.38;3.72;;;;;;;;;;6126245;23;20006;-78
2022/12/31 13:13:05;;;;;;;21.95;4.47;;;;;;;;;;6128085;23;20006;-78
2022/12/31 13:15:38;;;;;;;17.38;3.88;;;;;;;;;;6127835;23;20072;-77
2022/12/31 13:18:22;;;;;;;21.92;4.82;;;;;;;;;;6128068;23;20016;-78
2022/12/31 13:20:58;;;;;;;19.70;4.00;;;;;;;;;;6127774;23;20002;-78
2022/12/31 13:23:36;;;;;;;19.05;3.85;;;;;;;;;;6127741;23;20260;-76
2022/12/31 13:26:05;;;;;;;18.55;3.90;;;;;;;;;;6127626;23;20022;-76
2022/12/31 13:28:32;;;;;;;19.58;3.55;;;;;;;;;;6126091;23;20038;-76
2022/12/31 13:31:05;;;;;;;20.33;3.58;;;;;;;;;;6127533;23;20345;-76
2022/12/31 13:33:36;;;;;;;26.75;4.57;;;;;;;;;;6127545;23;20005;-76
2022/12/31 13:36:04;;;;;;;19.67;3.63;;;;;;;;;;6127383;23;20081;-76
2022/12/31 13:38:34;;;;;;;22.95;3.97;;;;;;;;;;6125562;23;20017;-76
2022/12/31 13:41:00;;;;;;;29.60;4.03;;;;;;;;;;6127522;23;20025;-77
2022/12/31 13:43:36;;;;;;;24.58;3.67;;;;;;;;;;6127530;23;20030;-77
2022/12/31 13:46:09;;;;;;;23.98;4.35;;;;;;;;;;6127485;23;20049;-77
2022/12/31 13:48:38;;;;;;;17.90;3.60;;;;;;;;;;6127706;23;19998;-76
2022/12/31 13:51:13;;;;;;;20.48;4.28;;;;;;;;;;6127338;23;20017;-77
2022/12/31 13:53:48;;;;;;;21.02;3.72;;;;;;;;;;6127375;23;20011;-79
2022/12/31 13:56:18;;;;;;;17.88;3.92;;;;;;;;;;6127848;23;20002;-77
2022/12/31 13:58:59;;;;;;;15.60;3.28;;;;;;;;;;6127186;23;20024;-76
2022/12/31 14:01:29;;;;;;;20.90;4.07;;;;;;;;;;6127261;23;20216;-77
2022/12/31 14:04:14;;;;;;;20.35;4.10;;;;;;;;;;6127294;23;20065;-78
2022/12/31 14:06:40;;;;;;;22.65;4.38;;;;;;;;;;6127269;23;20002;-77
2022/12/31 14:09:07;;;;;;;24.05;4.72;;;;;;;;;;6127147;23;19998;-76
2022/12/31 14:11:48;;;;;;;18.55;4.45;;;;;;;;;;6127168;23;20025;-76
2022/12/31 14:14:20;;;;;;;20.05;4.03;;;;;;;;;;6127321;23;20009;-77
2022/12/31 14:16:49;;;;;;;22.85;4.20;;;;;;;;;;6127153;23;20009;-76
2022/12/31 14:19:22;;;;;;;20.67;4.10;;;;;;;;;;6127151;23;20025;-77
2022/12/31 14:22:18;;;;;;;23.23;4.00;;;;;;;;;;6127555;23;20437;-77
2022/12/31 14:24:44;;;;;;;22.00;4.43;;;;;;;;;;6024324;23;20007;-78
2022/12/31 14:27:22;;;;;;;21.35;4.13;;;;;;;;;;6127478;23;20413;-78
2022/12/31 14:29:50;;;;;;;19.75;3.95;;;;;;;;;;6125486;23;20002;-78
2022/12/31 14:32:25;;;;;;;22.65;4.72;;;;;;;;;;6126969;23;20008;-77
2022/12/31 14:35:10;;;;;;;20.08;3.80;;;;;;;;;;6125075;23;20449;-78
2022/12/31 14:37:36;;;;;;;18.42;4.00;;;;;;;;;;6126964;23;20463;-76
2022/12/31 14:40:13;;;;;;;18.63;4.10;;;;;;;;;;6126783;23;20002;-76
2022/12/31 14:42:52;;;;;;;18.58;3.72;;;;;;;;;;6125060;23;20006;-76
2022/12/31 14:45:27;;;;;;;21.67;4.00;;;;;;;;;;6127180;23;20009;-77
2022/12/31 14:47:59;;;;;;;22.60;4.25;;;;;;;;;;6126890;23;20500;-75
2022/12/31 14:50:27;;;;;;;17.80;3.85;;;;;;;;;;6126806;23;20049;-76
2022/12/31 14:52:55;;;;;;;20.85;4.25;;;;;;;;;;6126961;23;20013;-74
2022/12/31 14:55:21;;;;;;;23.83;4.32;;;;;;;;;;6126838;23;20005;-77
2022/12/31 14:57:48;;;;;;;23.60;3.80;;;;;;;;;;6126813;23;20060;-77
2022/12/31 15:00:34;;;;;;;23.08;3.88;;;;;;;;;;6126721;23;20429;-77
2022/12/31 15:03:05;;;;;;;22.20;4.13;;;;;;;;;;6126976;23;20002;-78
2022/12/31 15:05:33;;;;;;;24.88;4.00;;;;;;;;;;6126985;23;19998;-77
2022/12/31 15:08:08;;;;;;;28.05;4.00;;;;;;;;;;6126693;23;20009;-78
2022/12/31 15:10:42;;;;;;;22.10;3.50;;;;;;;;;;6126956;23;20445;-78
2022/12/31 15:13:13;;;;;;;20.80;4.00;;;;;;;;;;6126694;23;20058;-78
2022/12/31 15:15:43;;;;;;;18.65;3.95;;;;;;;;;;6125060;23;20002;-78
2022/12/31 15:18:12;;;;;;;16.60;3.50;;;;;;;;;;6126600;23;20009;-76
2022/12/31 15:20:43;;;;;;;16.50;3.42;;;18.00;1.00;;;;;;6126462;23;20006;-78
2022/12/31 15:23:36;;;;;;;18.58;4.00;;;18.00;1.00;;;;;;6126848;23;20452;-77
2022/12/31 15:26:04;;;;;;;18.77;3.95;;;;;;;;;;6114943;23;20009;-77
2022/12/31 15:28:30;;;;;;;19.35;4.20;;;;;;;;;;6126719;23;20002;-78
2022/12/31 15:31:00;;;;;;;22.10;4.28;;;;;;;;;;6126550;23;20443;-75
2022/12/31 15:33:29;;;;;;;17.83;3.47;;;;;;;;;;6124618;23;20021;-79
2022/12/31 15:35:56;;;;;;;18.17;4.55;;;;;;;;;;6126576;23;20013;-76
2022/12/31 15:38:39;;;;;;;19.92;4.82;;;;;;;;;;6126417;23;20013;-77
2022/12/31 15:41:24;;;;;;;23.58;4.40;;;;;;;;;;6126332;23;20009;-76
2022/12/31 15:43:59;;;;;;;18.65;4.03;;;;;;;;;;6126580;23;20002;-78